Share

Adair, IL

Astoria (KILASTOR2) Elev 679 ft | 40.23 °N, 90.35 °W | Change Station

Current weather conditions updated 5 minutes ago

Clear
Clear
40.1 °F
Feels Like 40 °F
N
2.0
Wind Variable Wind from North
Gusts 3.0 mph
Sunrise 6:19 AM
Sunset 7:43 PM
Moon Waning Gibbous

Today is forecast to be Much Warmer than yesterday.

Pressure 30.31 in
Visibility 10.0 miles
Clouds Clear
Windchill 40 °F
Dew Point 35 °F
Humidity 82%
Rainfall 0.00 in
Snow Depth Not available.
UV 0 out of 16
Pollen 10.00 out of 12
Air Quality Not available.
Flu Activity Local Activity
METAR KMQB 180955Z AUTO 33004KT 10SM CLR 01/00 A3031 RMK AO2 T00120000

More Conditions Fewer Conditions

Pressure 30.31 in
Visibility 10.0 miles
Clouds Clear
Windchill 40 °F
Dew Point 35 °F
Humidity 82%
Rainfall 0.00 in
Snow Depth Not available.
UV 0 out of 16
Pollen 10.00 out of 12
Air Quality Not available.
Flu Activity Local Activity
METAR KMQB 180955Z AUTO 33004KT 10SM CLR 01/00 A3031 RMK AO2 T00120000

More Conditions Fewer Conditions

10-Day Forecast

Almanac

Astronomy

Apr. 18, 2014 Rise Set
Actual Time 6:19 AM CDT 7:43 PM CDT
Civil Twilight 5:50 AM CDT 8:12 PM CDT
Nautical Twilight 5:16 AM CDT 8:46 PM CDT
Astronomical Twilight 4:40 AM CDT 9:22 PM CDT
Moon 11:29 PM CDT 8:40 AM CDT
Length of Visible Light 14h 21m
Length of Day
13h 24m
Tomorrow will be 2m 30s longer.
Waning Gibbous, 89% of the Moon is Illuminated
Today
Waning Gibbous
Apr 22
Last Quarter
Apr 29
New
May 6
First Quarter
May 14
Full

Today's Extremes

State Highs State Lows

Community

  • SUNRISE THROUGH THE TREES.
    SUNRISE THROUGH THE TREES.
  • Dog Wood Blossoms
    Dog Wood Blossoms
  • Morning Light
    Morning Light
  • New Day
    New Day
  • Lake Michigan Sunrise
    Lake Michigan Sunrise

WunderPhotos

Upload Photos

1,702,300 photos uploaded!

WunderBlogs® & News

Nearby

Snow Depth

Station Depth Elevation
No new snow has been reported.

Coastal Water Temperatures

Place Temperature
No Stations Reporting

Earthquake Activity

City Distance Mag. Time & Date
No recent earthquake activity has been reported nearby.
Minimum magnitude displayed is 2.5.

Nearby Weather Stations

Station Location Temp. Windchill Dew Point Humidity Wind Precip. Elev Updated Type
Astoria, Astoria, IL 40.1 °F 40 °F 35 °F 82% North  at  2.0 mph 0.00 in / hr 679 ft 5:01 AM CDT Normal
ARS W9PFD, Adair, IL 36.5 °F 36 °F 34 °F 90% WNW  at  0.0 mph 0.00 in / hr 646 ft 5:05 AM CDT Normal
Rushville, Rushville, IL 40.9 °F 41 °F 35 °F 79% North  at  0.0 mph 0.00 in / hr 597 ft 5:07 AM CDT Rapid Fire
WIU Harry Mussatto Golf Course, Macomb, IL 37.9 °F 38 °F 33 °F 83% NNW  at  2.0 mph 0.00 in / hr 705 ft 5:06 AM CDT Normal
Springview Hills, Macomb, IL 36.4 °F 36 °F 31 °F 80% North  at  0.4 mph 0.00 in / hr 702 ft 5:07 AM CDT Rapid Fire

Show More Stations Show Fewer Stations

What do you think?

We're not finished. Please let us know what you like, what you don't like, and what you are still missing.